Time;durP1;ratioP1;P1;durP2;ratioP2;P2;SDS_P1;SDS_P2;PMS_P1;PMS_P2;Temp;Humidity;BMP_temperature;BMP_pressure;BME280_temperature;BME280_humidity;BME280_pressure;Samples;Min_cycle;Max_cycle;Signal;HPM_P1;HPM_P2
2023/09/09 00:01:08;;;;;;;0.00;0.00;;;20.70;71.80;;;;;;5043991;28;20025;-77
2023/09/09 00:03:37;;;;;;;0.00;0.00;;;20.60;72.00;;;;;;5043237;28;20045;-77
2023/09/09 00:06:10;;;;;;;0.00;0.00;;;20.60;72.50;;;;;;5043807;28;20036;-77
2023/09/09 00:08:36;;;;;;;0.03;0.03;;;20.60;72.80;;;;;;5041975;28;20032;-76
2023/09/09 00:11:02;;;;;;;0.00;0.00;;;20.50;73.30;;;;;;5041823;28;20017;-76
2023/09/09 00:13:27;;;;;;;0.00;0.00;;;20.50;73.50;;;;;;5042117;28;20044;-76
2023/09/09 00:15:54;;;;;;;0.00;0.00;;;20.50;73.70;;;;;;5043967;28;20028;-78
2023/09/09 00:18:20;;;;;;;0.00;0.00;;;20.40;74.00;;;;;;5042355;28;20037;-76
2023/09/09 00:20:46;;;;;;;0.03;0.03;;;20.30;74.40;;;;;;5043983;28;20029;-75
2023/09/09 00:23:12;;;;;;;0.00;0.00;;;20.20;75.10;;;;;;5043182;28;20055;-76
2023/09/09 00:25:39;;;;;;;0.00;0.00;;;20.20;75.40;;;;;;5034730;28;20078;-78
2023/09/09 00:28:06;;;;;;;0.00;0.00;;;20.20;75.40;;;;;;5043570;28;20025;-76
2023/09/09 00:30:32;;;;;;;0.00;0.00;;;20.20;75.50;;;;;;5042979;28;20068;-76
2023/09/09 00:32:59;;;;;;;0.00;0.00;;;20.10;75.70;;;;;;5042572;28;20052;-77
2023/09/09 00:35:24;;;;;;;0.00;0.00;;;20.00;76.10;;;;;;5043309;28;20130;-77
2023/09/09 00:37:50;;;;;;;0.00;0.00;;;19.90;76.90;;;;;;5043285;28;20565;-77
2023/09/09 00:40:16;;;;;;;0.00;0.00;;;19.90;77.40;;;;;;5043590;28;20032;-75
2023/09/09 00:42:42;;;;;;;0.00;0.00;;;19.90;77.70;;;;;;5043091;28;20037;-76
2023/09/09 00:45:08;;;;;;;0.00;0.00;;;19.80;78.20;;;;;;5043217;28;20232;-76
2023/09/09 00:47:34;;;;;;;0.00;0.00;;;19.80;78.20;;;;;;5041589;28;20102;-76
2023/09/09 00:50:00;;;;;;;0.00;0.00;;;19.70;78.80;;;;;;5043474;28;20267;-79
2023/09/09 00:52:26;;;;;;;0.00;0.00;;;19.70;78.90;;;;;;5040935;28;20043;-77
2023/09/09 00:54:52;;;;;;;0.00;0.00;;;19.60;79.40;;;;;;5043375;28;20040;-76
2023/09/09 00:57:18;;;;;;;0.00;0.00;;;19.50;79.20;;;;;;5041421;28;20033;-76
2023/09/09 00:59:44;;;;;;;0.00;0.00;;;19.50;79.50;;;;;;5036137;28;20060;-77
2023/09/09 01:02:10;;;;;;;0.00;0.00;;;19.50;78.90;;;;;;5042080;28;20117;-77
2023/09/09 01:04:36;;;;;;;0.13;0.13;;;19.50;79.50;;;;;;5037808;28;20051;-76
2023/09/09 01:07:03;;;;;;;0.00;0.00;;;19.50;79.70;;;;;;5042208;28;20268;-76
2023/09/09 01:09:33;;;;;;;0.00;0.00;;;19.40;80.00;;;;;;5042759;28;20048;-76
2023/09/09 01:12:00;;;;;;;0.00;0.00;;;19.30;80.30;;;;;;5039693;28;20414;-75
2023/09/09 01:14:26;;;;;;;0.00;0.00;;;19.30;80.60;;;;;;5042880;28;20028;-76
2023/09/09 01:16:53;;;;;;;0.00;0.00;;;19.20;81.00;;;;;;5041715;28;20032;-75
2023/09/09 01:19:19;;;;;;;0.00;0.00;;;19.20;81.10;;;;;;5042195;28;20144;-75
2023/09/09 01:21:47;;;;;;;0.90;0.90;;;19.20;81.30;;;;;;5040821;28;20392;-76
2023/09/09 01:24:15;;;;;;;0.00;0.00;;;19.20;81.40;;;;;;5044946;28;20021;-75
2023/09/09 01:26:45;;;;;;;0.10;0.10;;;19.10;81.70;;;;;;5042022;28;20075;-78
2023/09/09 01:29:11;;;;;;;0.00;0.00;;;19.10;81.60;;;;;;5042885;28;20025;-78
2023/09/09 01:31:37;;;;;;;0.00;0.00;;;19.00;82.00;;;;;;5040263;28;20437;-76
2023/09/09 01:34:03;;;;;;;0.00;0.00;;;19.10;81.60;;;;;;5042478;28;20053;-75
2023/09/09 01:36:29;;;;;;;0.00;0.00;;;19.00;81.60;;;;;;5042036;28;20084;-76
2023/09/09 01:38:54;;;;;;;0.00;0.00;;;19.00;81.70;;;;;;5042615;28;20401;-75
2023/09/09 01:41:20;;;;;;;0.00;0.00;;;18.90;82.00;;;;;;5040676;28;20086;-77
2023/09/09 01:43:46;;;;;;;0.00;0.00;;;18.90;82.20;;;;;;5039754;28;20079;-76
2023/09/09 01:46:12;;;;;;;0.00;0.00;;;18.90;81.80;;;;;;5040100;28;20021;-76
2023/09/09 01:48:38;;;;;;;0.00;0.00;;;18.90;81.90;;;;;;5040246;28;20036;-76
2023/09/09 01:51:05;;;;;;;;;;;18.90;82.10;;;;;;5037322;28;20389;-75
2023/09/09 01:53:31;;;;;;;0.00;0.00;;;18.90;81.90;;;;;;5040686;28;20002;-77
2023/09/09 01:55:58;;;;;;;0.13;0.13;;;18.80;81.80;;;;;;5041565;28;20484;-75
2023/09/09 01:58:24;;;;;;;0.00;0.00;;;18.80;82.10;;;;;;5038494;28;20029;-77
2023/09/09 02:00:49;;;;;;;0.00;0.00;;;18.80;81.90;;;;;;5039293;28;20025;-77
2023/09/09 02:03:15;;;;;;;0.00;0.00;;;18.80;82.00;;;;;;5038043;28;20523;-76
2023/09/09 02:05:41;;;;;;;0.00;0.00;;;18.70;81.90;;;;;;5039677;28;20037;-76
2023/09/09 02:08:07;;;;;;;0.00;0.00;;;18.80;81.80;;;;;;5040321;28;20036;-75
2023/09/09 02:10:33;;;;;;;0.00;0.00;;;18.70;81.80;;;;;;5040090;28;20132;-77
2023/09/09 02:12:58;;;;;;;0.00;0.00;;;18.70;82.10;;;;;;5040024;28;20040;-75
2023/09/09 02:15:24;;;;;;;0.00;0.00;;;18.60;82.20;;;;;;5038532;28;20615;-74
2023/09/09 02:17:50;;;;;;;0.00;0.00;;;18.60;82.30;;;;;;5038978;28;20032;-77
2023/09/09 02:20:16;;;;;;;0.00;0.00;;;18.60;82.60;;;;;;5039541;28;20052;-77
2023/09/09 02:22:42;;;;;;;0.00;0.00;;;18.50;82.90;;;;;;5039251;28;20034;-75
2023/09/09 02:25:08;;;;;;;0.00;0.00;;;18.50;83.10;;;;;;5039704;28;20884;-76
2023/09/09 02:27:34;;;;;;;0.00;0.00;;;18.50;83.50;;;;;;5036424;28;20499;-78
2023/09/09 02:30:01;;;;;;;0.00;0.00;;;18.40;84.20;;;;;;5038563;28;20048;-75
2023/09/09 02:32:26;;;;;;;0.00;0.00;;;18.30;84.80;;;;;;5039413;28;20025;-76
2023/09/09 02:34:52;;;;;;;0.00;0.00;;;18.20;85.10;;;;;;5037641;28;20044;-75
2023/09/09 02:37:20;;;;;;;0.00;0.00;;;18.10;85.70;;;;;;5031586;28;20037;-76
2023/09/09 02:39:50;;;;;;;0.00;0.00;;;18.20;85.80;;;;;;5039521;28;20564;-77
2023/09/09 02:42:21;;;;;;;0.00;0.00;;;18.10;86.40;;;;;;5041242;28;20048;-76
2023/09/09 02:44:49;;;;;;;0.00;0.00;;;18.00;86.90;;;;;;5042258;28;20035;-75
2023/09/09 02:47:15;;;;;;;0.10;0.10;;;18.00;87.20;;;;;;5041328;28;20506;-76
2023/09/09 02:49:43;;;;;;;0.00;0.00;;;18.00;87.00;;;;;;5041496;28;20025;-77
2023/09/09 02:52:09;;;;;;;0.20;0.20;;;18.00;87.30;;;;;;5043054;28;20114;-75
2023/09/09 02:54:36;;;;;;;0.00;0.00;;;17.90;87.70;;;;;;5040341;28;20037;-76
2023/09/09 02:57:03;;;;;;;0.00;0.00;;;17.90;87.70;;;;;;5043303;28;20293;-76
2023/09/09 02:59:33;;;;;;;0.00;0.00;;;17.90;87.50;;;;;;5042064;28;20043;-75
2023/09/09 03:01:59;;;;;;;0.10;0.10;;;17.90;87.60;;;;;;5040868;28;20025;-76
2023/09/09 03:04:25;;;;;;;0.10;0.10;;;17.90;87.60;;;;;;5042050;28;20496;-76
2023/09/09 03:06:51;;;;;;;0.00;0.00;;;17.80;88.30;;;;;;5042765;28;20048;-76
2023/09/09 03:09:17;;;;;;;0.27;0.27;;;17.80;88.50;;;;;;5042336;28;20037;-77
2023/09/09 03:11:42;;;;;;;0.53;0.53;;;17.70;88.60;;;;;;5042081;28;20550;-75
2023/09/09 03:14:08;;;;;;;0.00;0.00;;;17.80;88.80;;;;;;5043581;28;20200;-78
2023/09/09 03:16:37;;;;;;;0.10;0.10;;;17.70;88.70;;;;;;5045073;28;20791;-76
2023/09/09 03:19:03;;;;;;;0.00;0.00;;;17.70;88.90;;;;;;5044964;28;20680;-75
2023/09/09 03:21:29;;;;;;;0.00;0.00;;;17.70;89.00;;;;;;5044886;28;20107;-75
2023/09/09 03:23:55;;;;;;;0.00;0.00;;;17.70;89.20;;;;;;5044298;28;20595;-77
2023/09/09 03:26:22;;;;;;;0.30;0.30;;;17.60;89.30;;;;;;5045906;28;20025;-76
2023/09/09 03:28:51;;;;;;;1.45;1.35;;;17.70;89.50;;;;;;5047791;28;20021;-75
2023/09/09 03:31:17;;;;;;;0.00;0.00;;;17.50;89.80;;;;;;5044460;28;20075;-76
2023/09/09 03:33:42;;;;;;;1.73;0.50;;;17.60;89.80;;;;;;5042325;28;20535;-76
2023/09/09 03:36:08;;;;;;;0.10;0.10;;;17.60;89.80;;;;;;5044280;28;20102;-76
2023/09/09 03:38:35;;;;;;;0.00;0.00;;;17.60;89.50;;;;;;5044783;28;20039;-75
2023/09/09 03:41:03;;;;;;;;;;;17.50;90.00;;;;;;5045136;28;20107;-76
2023/09/09 03:43:29;;;;;;;0.57;0.57;;;17.50;90.10;;;;;;5044976;28;19923;-76
2023/09/09 03:45:56;;;;;;;0.83;0.83;;;17.40;90.30;;;;;;5044928;28;20033;-75
2023/09/09 03:48:22;;;;;;;0.00;0.00;;;17.30;90.40;;;;;;5043636;28;20029;-77
2023/09/09 03:50:48;;;;;;;0.00;0.00;;;17.30;90.50;;;;;;5044437;28;20037;-76
2023/09/09 03:53:13;;;;;;;0.00;0.00;;;17.30;90.60;;;;;;5043284;28;20506;-77
2023/09/09 03:55:39;;;;;;;0.00;0.00;;;17.30;90.60;;;;;;5043549;28;20092;-78
2023/09/09 03:58:05;;;;;;;0.00;0.00;;;17.30;90.60;;;;;;5043309;28;20033;-78
2023/09/09 04:00:31;;;;;;;0.10;0.10;;;17.20;90.90;;;;;;5041369;28;20483;-79
2023/09/09 04:02:56;;;;;;;0.00;0.00;;;17.10;91.20;;;;;;5043657;28;20041;-77
2023/09/09 04:05:23;;;;;;;0.10;0.10;;;17.10;91.50;;;;;;5044498;28;20024;-76
2023/09/09 04:07:48;;;;;;;0.00;0.00;;;17.10;91.10;;;;;;5043724;28;20125;-78
2023/09/09 04:10:14;;;;;;;0.00;0.00;;;17.20;90.90;;;;;;5041701;28;20132;-75
2023/09/09 04:12:40;;;;;;;0.00;0.00;;;17.30;90.60;;;;;;5043462;28;20033;-75
2023/09/09 04:15:08;;;;;;;0.00;0.00;;;17.30;90.70;;;;;;5043434;28;20039;-75
2023/09/09 04:17:34;;;;;;;0.40;0.40;;;17.20;90.80;;;;;;5040920;28;20018;-75
2023/09/09 04:20:01;;;;;;;0.00;0.00;;;17.10;91.00;;;;;;5041437;28;21132;-76
2023/09/09 04:22:26;;;;;;;0.00;0.00;;;17.20;90.90;;;;;;5039320;28;20559;-75
2023/09/09 04:24:55;;;;;;;0.37;0.37;;;17.10;91.00;;;;;;5041949;28;20029;-76
2023/09/09 04:27:22;;;;;;;0.25;0.25;;;17.20;90.80;;;;;;5042973;28;20033;-76
2023/09/09 04:29:47;;;;;;;0.00;0.00;;;17.20;90.80;;;;;;5043464;28;20024;-76
2023/09/09 04:32:13;;;;;;;0.00;0.00;;;17.20;90.80;;;;;;5042654;28;20033;-78
2023/09/09 04:34:39;;;;;;;0.10;0.10;;;17.20;90.80;;;;;;5043109;28;20057;-76
2023/09/09 04:37:05;;;;;;;0.00;0.00;;;17.20;90.70;;;;;;5043119;28;20036;-76
2023/09/09 04:39:30;;;;;;;0.10;0.10;;;17.10;90.90;;;;;;5042437;28;20104;-78
2023/09/09 04:41:56;;;;;;;0.43;0.43;;;17.00;91.10;;;;;;5043063;28;20123;-75
2023/09/09 04:44:22;;;;;;;0.10;0.10;;;17.10;91.10;;;;;;5043231;28;20045;-75
2023/09/09 04:46:48;;;;;;;0.00;0.00;;;17.00;91.30;;;;;;5043329;28;20036;-75
2023/09/09 04:49:17;;;;;;;0.07;0.07;;;16.90;91.50;;;;;;5042594;28;20032;-75
2023/09/09 04:51:43;;;;;;;0.00;0.00;;;16.90;91.60;;;;;;5043032;28;20033;-75
2023/09/09 04:54:09;;;;;;;0.00;0.00;;;16.80;92.00;;;;;;5043349;28;20033;-76
2023/09/09 04:56:35;;;;;;;0.10;0.10;;;16.90;92.00;;;;;;5044791;28;20025;-74
2023/09/09 04:59:00;;;;;;;0.00;0.00;;;16.80;92.20;;;;;;5041859;28;20025;-77
2023/09/09 05:01:26;;;;;;;0.00;0.00;;;16.70;92.60;;;;;;5035620;28;20033;-76
2023/09/09 05:03:52;;;;;;;0.20;0.20;;;16.60;93.00;;;;;;5040844;28;20059;-77
2023/09/09 05:06:18;;;;;;;0.10;0.10;;;16.60;93.30;;;;;;5042357;28;20025;-76
2023/09/09 05:08:43;;;;;;;0.53;0.43;;;16.40;93.70;;;;;;5041404;28;20037;-77
2023/09/09 05:11:10;;;;;;;0.00;0.00;;;16.50;93.80;;;;;;5043047;28;20033;-78
2023/09/09 05:13:35;;;;;;;0.00;0.00;;;16.50;93.80;;;;;;5041204;28;20033;-77
2023/09/09 05:16:02;;;;;;;0.00;0.00;;;16.50;93.80;;;;;;5042333;28;20029;-77
2023/09/09 05:18:28;;;;;;;0.30;0.30;;;16.50;93.60;;;;;;5042191;28;20025;-76
2023/09/09 05:20:54;;;;;;;0.00;0.00;;;16.50;93.70;;;;;;5042570;28;20056;-76
2023/09/09 05:23:20;;;;;;;0.00;0.00;;;16.60;93.70;;;;;;5041856;28;20383;-76
2023/09/09 05:25:45;;;;;;;0.00;0.00;;;16.50;93.80;;;;;;5041140;28;20064;-76
2023/09/09 05:28:11;;;;;;;0.00;0.00;;;16.60;93.80;;;;;;5038869;28;20539;-77
2023/09/09 05:30:40;;;;;;;0.00;0.00;;;16.50;93.70;;;;;;5041048;28;20029;-74
2023/09/09 05:33:06;;;;;;;0.10;0.10;;;16.60;93.80;;;;;;5037644;28;20034;-75
2023/09/09 05:35:32;;;;;;;0.10;0.10;;;16.70;93.50;;;;;;5037334;28;20048;-75
2023/09/09 05:37:58;;;;;;;0.00;0.00;;;16.60;93.70;;;;;;5044253;28;20276;-74
2023/09/09 05:40:23;;;;;;;0.00;0.00;;;16.80;93.40;;;;;;5038056;28;20029;-76
2023/09/09 05:42:49;;;;;;;0.00;0.00;;;16.90;93.10;;;;;;5041513;28;20049;-75
2023/09/09 05:45:15;;;;;;;0.00;0.00;;;17.10;92.70;;;;;;5040012;28;20044;-75
2023/09/09 05:47:42;;;;;;;0.00;0.00;;;17.50;91.90;;;;;;5038796;28;20021;-76
2023/09/09 05:50:08;;;;;;;;;;;17.60;91.40;;;;;;5038793;28;20110;-75
2023/09/09 05:52:33;;;;;;;0.00;0.00;;;18.00;90.50;;;;;;5038935;28;19916;-75
2023/09/09 05:54:59;;;;;;;0.00;0.00;;;18.00;90.30;;;;;;5034032;28;20131;-75
2023/09/09 05:57:25;;;;;;;0.00;0.00;;;18.20;90.10;;;;;;5039311;28;20029;-76
2023/09/09 05:59:51;;;;;;;0.20;0.20;;;18.20;90.20;;;;;;5049686;28;20059;-78
2023/09/09 06:02:16;;;;;;;0.00;0.00;;;18.80;88.30;;;;;;5041336;28;20072;-73
2023/09/09 06:04:42;;;;;;;0.00;0.00;;;19.10;86.40;;;;;;5038480;28;20048;-73
2023/09/09 06:07:08;;;;;;;0.23;0.23;;;19.40;84.80;;;;;;5036343;28;20091;-75
2023/09/09 06:09:34;;;;;;;0.00;0.00;;;19.90;83.20;;;;;;5038592;28;20033;-76
2023/09/09 06:12:00;;;;;;;0.00;0.00;;;20.30;81.50;;;;;;5036496;28;20513;-76
2023/09/09 06:14:26;;;;;;;;;;;20.50;80.50;;;;;;5039189;28;20111;-73
2023/09/09 06:16:52;;;;;;;0.00;0.00;;;21.10;78.60;;;;;;5043526;28;20427;-77
2023/09/09 06:19:17;;;;;;;0.00;0.00;;;21.00;78.80;;;;;;5034897;28;20069;-74
2023/09/09 06:21:43;;;;;;;0.00;0.00;;;21.00;79.00;;;;;;5041701;28;20028;-76
2023/09/09 06:24:09;;;;;;;0.00;0.00;;;21.20;77.80;;;;;;5044538;28;20057;-76
2023/09/09 06:26:35;;;;;;;0.00;0.00;;;21.60;76.70;;;;;;5042937;28;20029;-81
2023/09/09 06:29:01;;;;;;;0.00;0.00;;;21.70;76.00;;;;;;5041334;28;20647;-76
2023/09/09 06:31:27;;;;;;;0.00;0.00;;;22.20;76.40;;;;;;5041945;28;20041;-77
2023/09/09 06:33:52;;;;;;;0.83;0.83;;;22.60;74.50;;;;;;5043652;28;20036;-74
2023/09/09 06:36:20;;;;;;;0.00;0.00;;;22.30;74.10;;;;;;5041844;28;20288;-77
2023/09/09 06:38:46;;;;;;;0.00;0.00;;;22.60;73.90;;;;;;5044742;28;20317;-75
2023/09/09 06:41:13;;;;;;;0.00;0.00;;;22.90;73.80;;;;;;5041121;28;20033;-74
2023/09/09 06:43:39;;;;;;;0.00;0.00;;;23.20;71.50;;;;;;5044181;28;20041;-76
2023/09/09 06:46:05;;;;;;;0.00;0.00;;;23.30;70.70;;;;;;5043763;28;20120;-74
2023/09/09 06:48:30;;;;;;;0.00;0.00;;;23.80;70.70;;;;;;5040313;28;20306;-75
2023/09/09 06:50:56;;;;;;;0.00;0.00;;;24.30;70.20;;;;;;5041336;28;20033;-77
2023/09/09 06:53:24;;;;;;;0.00;0.00;;;24.30;68.50;;;;;;5038094;28;20024;-78
2023/09/09 06:55:51;;;;;;;0.00;0.00;;;24.10;68.70;;;;;;5043773;28;20067;-78
2023/09/09 06:58:16;;;;;;;0.10;0.10;;;24.10;67.30;;;;;;5044336;28;20759;-75
2023/09/09 07:00:48;;;;;;;0.00;0.00;;;24.30;66.80;;;;;;5039081;28;20032;-78
2023/09/09 07:03:14;;;;;;;0.00;0.00;;;24.20;66.50;;;;;;5043401;28;20299;-77
2023/09/09 07:05:39;;;;;;;0.00;0.00;;;24.60;66.30;;;;;;5044577;28;20035;-78
2023/09/09 07:08:05;;;;;;;0.00;0.00;;;24.60;66.20;;;;;;5043515;28;20040;-76
2023/09/09 07:10:31;;;;;;;0.00;0.00;;;25.00;65.20;;;;;;5034649;28;20111;-78
2023/09/09 07:12:57;;;;;;;0.00;0.00;;;25.90;64.30;;;;;;5039263;28;20037;-74
2023/09/09 07:15:23;;;;;;;0.00;0.00;;;26.70;61.80;;;;;;5039174;28;20052;-76
2023/09/09 07:17:48;;;;;;;0.00;0.00;;;26.40;60.70;;;;;;5039240;28;20033;-79
2023/09/09 07:20:15;;;;;;;0.00;0.00;;;26.40;60.50;;;;;;5032988;28;20095;-74
2023/09/09 07:22:42;;;;;;;0.00;0.00;;;26.90;60.40;;;;;;5037835;28;20045;-76
2023/09/09 07:25:08;;;;;;;0.00;0.00;;;26.90;59.00;;;;;;5041935;28;20021;-75
2023/09/09 07:27:34;;;;;;;0.00;0.00;;;27.10;58.90;;;;;;5045310;28;20033;-79
2023/09/09 07:29:59;;;;;;;0.00;0.00;;;27.70;57.50;;;;;;5044905;28;20033;-77
2023/09/09 07:32:25;;;;;;;0.00;0.00;;;27.80;57.50;;;;;;5044419;28;20126;-75
2023/09/09 07:34:51;;;;;;;0.00;0.00;;;27.70;56.80;;;;;;5044685;28;20057;-80
2023/09/09 07:37:17;;;;;;;0.00;0.00;;;27.70;58.10;;;;;;5045315;28;20642;-75
2023/09/09 07:39:46;;;;;;;;;;;27.60;56.50;;;;;;5040304;28;20848;-75
2023/09/09 07:42:13;;;;;;;0.00;0.00;;;27.70;56.70;;;;;;5041092;28;19951;-75
2023/09/09 07:44:39;;;;;;;0.00;0.00;;;28.60;56.40;;;;;;5039490;28;20063;-78
2023/09/09 07:47:07;;;;;;;0.00;0.00;;;29.20;55.50;;;;;;5039844;28;20033;-76
2023/09/09 07:49:35;;;;;;;0.00;0.00;;;29.60;54.70;;;;;;5039209;28;20037;-75
2023/09/09 07:52:02;;;;;;;0.00;0.00;;;29.50;53.80;;;;;;5034388;28;20025;-76
2023/09/09 07:54:29;;;;;;;0.00;0.00;;;29.40;54.10;;;;;;5029792;28;20278;-78
2023/09/09 07:56:55;;;;;;;0.00;0.00;;;30.30;52.80;;;;;;5034356;28;20021;-80
2023/09/09 07:59:21;;;;;;;0.00;0.00;;;30.60;51.40;;;;;;5037033;28;20094;-78
2023/09/09 08:01:47;;;;;;;;;;;30.70;50.40;;;;;;5036334;28;20033;-76
2023/09/09 08:04:13;;;;;;;0.00;0.00;;;30.80;49.60;;;;;;5044134;28;19978;-75
2023/09/09 08:06:39;;;;;;;0.00;0.00;;;31.50;49.30;;;;;;5043990;28;20040;-75
2023/09/09 08:09:05;;;;;;;;;;;32.10;49.90;;;;;;5044554;28;20035;-78
2023/09/09 08:11:31;;;;;;;0.00;0.00;;;32.80;47.80;;;;;;5043093;28;19983;-77
2023/09/09 08:13:57;;;;;;;;;;;32.60;48.30;;;;;;5044481;28;20077;-76
2023/09/09 08:16:23;;;;;;;0.00;0.00;;;33.00;48.20;;;;;;5043511;28;20419;-76
2023/09/09 08:18:49;;;;;;;0.00;0.00;;;32.70;47.80;;;;;;5043327;28;20490;-75
2023/09/09 08:21:15;;;;;;;;;;;32.70;47.00;;;;;;5044125;28;20025;-77
2023/09/09 08:23:40;;;;;;;0.00;0.00;;;32.90;47.00;;;;;;5043309;28;19993;-77
2023/09/09 08:26:06;;;;;;;;;;;33.50;46.50;;;;;;5043739;28;20025;-78
2023/09/09 08:28:33;;;;;;;0.20;0.20;;;33.40;45.70;;;;;;5043277;28;20295;-75
2023/09/09 08:30:59;;;;;;;0.00;0.00;;;33.90;45.50;;;;;;5043025;28;20591;-79
2023/09/09 08:33:25;;;;;;;0.00;0.00;;;33.40;46.20;;;;;;5043348;28;20503;-77
2023/09/09 08:35:51;;;;;;;;;;;33.40;46.10;;;;;;5044025;28;20057;-76
2023/09/09 08:38:18;;;;;;;0.00;0.00;;;33.50;45.00;;;;;;5039592;28;20590;-79
2023/09/09 08:40:59;;;;;;;;;;;34.20;44.50;;;;;;5041975;28;20029;-77
2023/09/09 08:43:50;;;;;;;0.00;0.00;;;34.10;46.20;;;;;;5033871;28;19916;-77
2023/09/09 08:46:17;;;;;;;0.00;0.00;;;34.40;44.00;;;;;;5034915;28;20028;-76
2023/09/09 08:48:43;;;;;;;0.00;0.00;;;33.70;44.90;;;;;;5037011;28;20423;-76
2023/09/09 08:51:14;;;;;;;0.00;0.00;;;33.80;44.90;;;;;;5042056;28;20056;-76
2023/09/09 08:53:44;;;;;;;0.00;0.00;;;34.30;45.10;;;;;;5041843;28;20485;-80
2023/09/09 08:56:13;;;;;;;0.00;0.00;;;35.30;44.50;;;;;;5043930;28;20136;-75
2023/09/09 08:58:42;;;;;;;0.00;0.00;;;36.00;43.90;;;;;;5042110;28;20079;-78
2023/09/09 09:01:08;;;;;;;0.00;0.00;;;35.50;42.70;;;;;;5034363;28;20104;-75
2023/09/09 09:03:34;;;;;;;0.00;0.00;;;35.90;43.60;;;;;;5037933;28;20041;-77
2023/09/09 09:06:03;;;;;;;;;;;36.10;43.10;;;;;;5028741;28;20021;-77
2023/09/09 09:08:33;;;;;;;0.00;0.00;;;36.30;43.40;;;;;;5033764;28;19908;-75
2023/09/09 09:11:01;;;;;;;0.00;0.00;;;36.00;42.90;;;;;;5041475;28;20107;-76
2023/09/09 09:13:31;;;;;;;0.20;0.20;;;35.60;43.30;;;;;;5031075;28;20026;-76
2023/09/09 09:15:58;;;;;;;0.00;0.00;;;35.60;43.00;;;;;;5034276;28;20081;-78
2023/09/09 09:18:24;;;;;;;0.63;0.63;;;35.40;41.60;;;;;;5038572;28;20071;-78
2023/09/09 09:20:51;;;;;;;;;;;35.70;42.80;;;;;;5035558;28;20101;-77
2023/09/09 09:23:17;;;;;;;0.00;0.00;;;36.00;42.10;;;;;;5039622;28;20474;-75
2023/09/09 09:25:44;;;;;;;;;;;37.10;41.40;;;;;;5036269;28;21078;-79
2023/09/09 09:28:14;;;;;;;0.00;0.00;;;37.60;41.20;;;;;;5041318;28;20436;-80
2023/09/09 09:30:41;;;;;;;0.00;0.00;;;37.60;39.90;;;;;;5041514;28;20079;-76
2023/09/09 09:33:07;;;;;;;0.00;0.00;;;37.00;40.60;;;;;;5041782;28;20096;-79
2023/09/09 09:35:34;;;;;;;;;;;37.50;39.90;;;;;;5041960;28;20496;-75
2023/09/09 09:38:00;;;;;;;0.00;0.00;;;36.60;39.50;;;;;;5041705;28;20329;-76
2023/09/09 09:40:27;;;;;;;0.40;0.40;;;35.90;39.90;;;;;;5039257;28;20476;-75
2023/09/09 09:42:53;;;;;;;0.00;0.00;;;35.80;41.00;;;;;;5040942;28;20033;-75
2023/09/09 09:45:29;;;;;;;0.00;0.00;;;36.40;39.40;;;;;;5042061;28;20120;-79
2023/09/09 09:47:57;;;;;;;0.00;0.00;;;36.30;39.20;;;;;;5040999;28;20522;-79
2023/09/09 09:50:28;;;;;;;0.00;0.00;;;36.40;40.30;;;;;;5035490;28;20025;-78
2023/09/09 09:53:02;;;;;;;0.00;0.00;;;36.90;39.40;;;;;;5040982;28;20090;-77
2023/09/09 09:55:30;;;;;;;0.00;0.00;;;37.90;38.80;;;;;;5039988;28;20029;-74
2023/09/09 09:57:57;;;;;;;0.00;0.00;;;37.40;37.80;;;;;;5041434;28;20017;-75
2023/09/09 10:00:27;;;;;;;0.00;0.00;;;36.60;38.70;;;;;;5041074;28;20018;-75
2023/09/09 10:02:55;;;;;;;0.00;0.00;;;35.80;38.10;;;;;;5041063;28;20033;-75
2023/09/09 10:05:23;;;;;;;0.10;0.10;;;35.20;38.60;;;;;;5041382;28;20103;-77
2023/09/09 10:07:54;;;;;;;0.00;0.00;;;34.90;38.00;;;;;;5040994;28;20057;-79
2023/09/09 10:10:23;;;;;;;0.00;0.00;;;34.30;40.80;;;;;;5040978;28;20033;-76
2023/09/09 10:13:01;;;;;;;0.00;0.00;;;33.30;41.10;;;;;;5040411;28;20514;-77
2023/09/09 10:15:30;;;;;;;0.00;0.00;;;33.10;41.10;;;;;;5033616;28;20397;-75
2023/09/09 10:17:56;;;;;;;0.00;0.00;;;32.90;40.20;;;;;;5040918;28;20078;-76
2023/09/09 10:20:24;;;;;;;0.00;0.00;;;32.80;40.70;;;;;;5039840;28;20525;-77
2023/09/09 10:22:53;;;;;;;0.00;0.00;;;33.00;40.80;;;;;;5041352;28;20082;-79
2023/09/09 10:25:20;;;;;;;0.00;0.00;;;32.90;41.40;;;;;;5033757;28;20104;-78
2023/09/09 10:27:48;;;;;;;0.00;0.00;;;32.70;40.80;;;;;;5039773;28;20040;-77
2023/09/09 10:30:16;;;;;;;0.00;0.00;;;32.60;41.10;;;;;;5035676;28;20028;-78
2023/09/09 10:32:43;;;;;;;0.00;0.00;;;32.70;40.20;;;;;;5040802;28;20028;-77
2023/09/09 10:35:09;;;;;;;0.00;0.00;;;32.10;40.60;;;;;;5036017;28;20060;-79
2023/09/09 10:37:36;;;;;;;;;;;32.10;41.00;;;;;;5041303;28;20119;-76
2023/09/09 10:40:06;;;;;;;0.00;0.00;;;32.10;41.50;;;;;;5039866;28;19959;-75
2023/09/09 10:42:34;;;;;;;0.00;0.00;;;32.40;41.80;;;;;;5039723;28;20175;-77
2023/09/09 10:45:40;;;;;;;0.00;0.00;;;32.00;41.20;;;;;;5033846;28;21457;-78
2023/09/09 10:48:07;;;;;;;0.00;0.00;;;32.10;43.40;;;;;;5017663;28;20029;-75
2023/09/09 10:50:49;;;;;;;0.00;0.00;;;32.20;41.60;;;;;;5038464;28;20037;-76
2023/09/09 10:53:22;;;;;;;0.00;0.00;;;32.20;42.40;;;;;;5028437;28;20033;-79
2023/09/09 10:55:51;;;;;;;0.00;0.00;;;32.10;42.00;;;;;;5029906;28;20543;-76
2023/09/09 10:58:19;;;;;;;0.00;0.00;;;31.90;40.80;;;;;;5030014;28;20120;-76
2023/09/09 11:00:46;;;;;;;0.00;0.00;;;31.30;41.20;;;;;;5029453;28;20021;-78
2023/09/09 11:03:27;;;;;;;0.00;0.00;;;31.30;41.90;;;;;;5037663;28;20033;-77
2023/09/09 11:05:58;;;;;;;0.00;0.00;;;31.60;42.20;;;;;;5043245;28;20079;-77
2023/09/09 11:08:28;;;;;;;0.00;0.00;;;31.60;43.20;;;;;;5041347;28;20094;-79
2023/09/09 11:11:41;;;;;;;0.00;0.00;;;31.70;43.60;;;;;;5043693;28;20035;-79
2023/09/09 11:14:10;;;;;;;0.00;0.00;;;31.50;41.60;;;;;;5035529;28;20032;-77
2023/09/09 11:16:42;;;;;;;0.00;0.00;;;31.40;41.70;;;;;;5041073;28;20032;-79
2023/09/09 11:19:13;;;;;;;0.00;0.00;;;31.40;41.80;;;;;;5041312;28;20025;-80
2023/09/09 11:21:50;;;;;;;0.00;0.00;;;31.50;42.20;;;;;;5040790;28;20044;-79
2023/09/09 11:24:17;;;;;;;0.00;0.00;;;31.30;42.80;;;;;;5042076;28;20424;-78
2023/09/09 11:26:55;;;;;;;0.00;0.00;;;31.30;41.60;;;;;;5044177;28;20029;-79
2023/09/09 11:29:21;;;;;;;0.00;0.00;;;31.40;42.00;;;;;;5040005;28;20108;-79
2023/09/09 11:31:47;;;;;;;;;;;31.30;41.50;;;;;;5044477;28;20109;-79
2023/09/09 11:34:14;;;;;;;0.00;0.00;;;31.20;42.00;;;;;;5043987;28;19920;-78
2023/09/09 11:36:41;;;;;;;0.00;0.00;;;31.00;42.40;;;;;;5044966;28;20029;-79
2023/09/09 11:39:06;;;;;;;;;;;31.00;43.00;;;;;;5043812;28;20032;-78
2023/09/09 11:41:32;;;;;;;0.00;0.00;;;31.00;42.10;;;;;;5043809;28;19912;-79
2023/09/09 11:44:09;;;;;;;1.20;1.02;;;30.90;41.90;;;;;;5044023;28;20634;-78
2023/09/09 11:46:41;;;;;;;0.00;0.00;;;30.80;41.80;;;;;;5037909;28;20033;-79
2023/09/09 11:49:07;;;;;;;0.00;0.00;;;30.70;41.80;;;;;;5041803;28;20064;-79
2023/09/09 11:51:36;;;;;;;;;;;30.80;42.20;;;;;;5034271;28;20098;-79
2023/09/09 11:54:02;;;;;;;0.00;0.00;;;30.70;42.40;;;;;;5039673;28;19909;-79
2023/09/09 11:56:29;;;;;;;0.00;0.00;;;30.80;42.20;;;;;;5040267;28;20029;-79
2023/09/09 11:58:55;;;;;;;1.27;1.17;;;30.80;42.90;;;;;;5039909;28;20082;-79
2023/09/09 12:01:22;;;;;;;;;;;30.80;42.70;;;;;;5039344;28;20045;-78
2023/09/09 12:03:51;;;;;;;0.00;0.00;;;30.60;42.10;;;;;;5039429;28;19924;-78
2023/09/09 12:06:22;;;;;;;0.00;0.00;;;30.60;42.60;;;;;;5033658;28;20040;-77
2023/09/09 12:08:49;;;;;;;0.00;0.00;;;30.60;43.30;;;;;;5041277;28;20546;-78
2023/09/09 12:11:17;;;;;;;0.00;0.00;;;30.40;43.00;;;;;;5043888;28;20025;-79
2023/09/09 12:13:44;;;;;;;0.00;0.00;;;30.30;43.50;;;;;;5040943;28;20062;-79
2023/09/09 12:16:11;;;;;;;0.10;0.10;;;30.30;44.50;;;;;;5043119;28;20035;-79
2023/09/09 12:18:36;;;;;;;;;;;30.60;41.50;;;;;;5042768;28;20045;-78
2023/09/09 12:21:09;;;;;;;0.00;0.00;;;30.50;41.50;;;;;;5044275;28;19947;-78
2023/09/09 12:23:39;;;;;;;0.00;0.00;;;30.50;42.10;;;;;;5043657;28;20501;-78
2023/09/09 12:26:18;;;;;;;0.00;0.00;;;30.60;41.60;;;;;;5041024;28;20029;-79
2023/09/09 12:29:04;;;;;;;0.00;0.00;;;30.60;41.20;;;;;;5041139;28;20108;-80
2023/09/09 12:31:31;;;;;;;0.00;0.00;;;30.90;40.10;;;;;;5034349;28;20033;-79
2023/09/09 12:33:57;;;;;;;0.00;0.00;;;30.80;40.10;;;;;;5038982;28;20562;-78
2023/09/09 12:36:23;;;;;;;0.98;0.98;;;30.50;42.50;;;;;;5034717;28;20029;-78
2023/09/09 12:38:50;;;;;;;0.00;0.00;;;30.40;41.80;;;;;;5040680;28;20032;-80
2023/09/09 12:41:20;;;;;;;0.00;0.00;;;30.50;43.50;;;;;;5038112;28;20029;-78
2023/09/09 12:43:47;;;;;;;0.00;0.00;;;30.40;41.80;;;;;;5032441;28;20029;-77
2023/09/09 12:46:17;;;;;;;0.00;0.00;;;30.50;41.40;;;;;;5037785;28;20017;-77
2023/09/09 12:48:51;;;;;;;0.00;0.00;;;30.30;40.40;;;;;;5041408;28;20033;-79
2023/09/09 12:51:17;;;;;;;0.17;0.17;;;30.30;41.40;;;;;;5037540;28;20754;-78
2023/09/09 12:53:43;;;;;;;;;;;30.30;42.40;;;;;;5049311;28;20041;-79